Time;durP1;ratioP1;P1;durP2;ratioP2;P2;SDS_P1;SDS_P2;PMS_P1;PMS_P2;Temp;Humidity;BMP_temperature;BMP_pressure;BME280_temperature;BME280_humidity;BME280_pressure;Samples;Min_cycle;Max_cycle;Signal;HPM_P1;HPM_P2
2021/07/14 00:03:56;;;;;;;14.20;12.73;;;22.80;73.30;;;;;;10459235;28;20408;-56
2021/07/14 00:08:57;;;;;;;13.88;12.50;;;22.80;73.40;;;;;;10459159;28;20156;-57
2021/07/14 00:24:17;;;;;;;13.45;12.25;;;22.80;73.30;;;;;;10453127;28;20457;-57
2021/07/14 00:29:18;;;;;;;12.68;11.38;;;22.80;73.30;;;;;;10458339;28;20103;-57
2021/07/14 00:34:19;;;;;;;13.13;11.70;;;22.80;73.30;;;;;;10458408;28;20445;-57
2021/07/14 00:39:21;;;;;;;24.10;12.85;;;22.80;73.40;;;;;;10457523;28;20079;-56
2021/07/14 00:44:22;;;;;;;15.38;12.95;;;22.80;73.40;;;;;;10457639;28;20017;-57
2021/07/14 00:49:22;;;;;;;13.07;11.80;;;22.80;73.30;;;;;;10457211;28;20045;-56
2021/07/14 00:54:23;;;;;;;13.88;12.48;;;22.80;73.20;;;;;;10457452;28;20073;-57
2021/07/14 00:59:24;;;;;;;14.30;12.82;;;22.80;73.30;;;;;;10457182;28;20036;-57
2021/07/14 01:04:31;;;;;;;13.52;12.23;;;22.80;73.30;;;;;;10439082;28;20035;-57
2021/07/14 01:09:39;;;;;;;13.40;12.02;;;22.80;73.40;;;;;;10456879;28;20560;-56
2021/07/14 01:14:52;;;;;;;13.40;12.10;;;22.80;73.30;;;;;;10438704;28;20074;-56
2021/07/14 01:20:14;;;;;;;12.85;11.50;;;22.70;73.30;;;;;;10462592;28;20522;-56
2021/07/14 01:25:40;;;;;;;13.70;12.18;;;22.80;73.30;;;;;;10447300;28;20040;-56
2021/07/14 01:30:41;;;;;;;14.48;13.07;;;22.80;73.30;;;;;;10456207;28;20037;-57
2021/07/14 01:35:46;;;;;;;14.40;12.73;;;22.80;73.30;;;;;;10454727;28;20033;-56
2021/07/14 01:40:48;;;;;;;11.88;10.68;;;22.80;73.20;;;;;;10455096;28;20056;-56
2021/07/14 01:45:53;;;;;;;12.38;11.18;;;22.80;73.30;;;;;;10454342;28;20531;-56
2021/07/14 01:50:55;;;;;;;14.23;12.73;;;22.80;73.40;;;;;;10442989;28;20443;-56
2021/07/14 01:55:56;;;;;;;13.10;11.25;;;22.80;73.40;;;;;;10454229;28;20120;-56
2021/07/14 02:00:57;;;;;;;13.50;11.30;;;22.80;73.30;;;;;;10424639;28;20042;-56
2021/07/14 02:06:01;;;;;;;13.15;11.85;;;22.80;73.20;;;;;;10437498;28;20025;-57
2021/07/14 02:11:02;;;;;;;13.27;11.88;;;22.80;73.90;;;;;;10455240;28;20044;-56
2021/07/14 02:16:08;;;;;;;12.70;11.50;;;22.80;73.20;;;;;;10444006;28;20025;-56
2021/07/14 02:21:09;;;;;;;12.57;11.30;;;22.70;73.20;;;;;;10462228;28;20037;-57
2021/07/14 02:26:10;;;;;;;12.70;11.40;;;22.80;73.20;;;;;;10454741;28;20021;-57
2021/07/14 02:31:11;;;;;;;13.20;11.45;;;22.70;73.20;;;;;;10436931;28;20504;-56
2021/07/14 02:36:15;;;;;;;13.20;11.80;;;22.70;73.30;;;;;;10454833;28;20111;-56
2021/07/14 02:41:26;;;;;;;12.52;11.27;;;22.70;73.20;;;;;;10435147;28;20077;-56
2021/07/14 02:46:29;;;;;;;12.50;11.23;;;22.80;73.20;;;;;;10454407;28;20032;-57
2021/07/14 02:51:34;;;;;;;12.70;11.38;;;22.70;73.10;;;;;;10454523;28;20508;-57
2021/07/14 02:56:36;;;;;;;12.27;11.02;;;22.80;73.30;;;;;;10444180;28;20113;-55
2021/07/14 03:01:42;;;;;;;12.68;11.07;;;22.70;73.20;;;;;;10444358;28;20374;-57
2021/07/14 03:06:45;;;;;;;11.75;10.57;;;22.70;73.20;;;;;;10444015;28;20388;-57
2021/07/14 03:11:46;;;;;;;12.02;10.57;;;22.70;73.30;;;;;;10444169;28;20499;-56
2021/07/14 03:16:47;;;;;;;13.02;11.30;;;22.70;73.30;;;;;;10459875;28;20036;-56
2021/07/14 03:21:49;;;;;;;13.07;11.88;;;22.70;73.30;;;;;;10469185;28;20432;-57
2021/07/14 03:26:50;;;;;;;12.70;11.45;;;22.70;73.30;;;;;;10460927;28;20072;-56
2021/07/14 03:31:51;;;;;;;11.93;10.57;;;22.70;73.30;;;;;;10460863;28;20039;-57
2021/07/14 03:36:53;;;;;;;12.73;10.82;;;22.70;73.30;;;;;;10442858;28;20021;-57
2021/07/14 03:41:55;;;;;;;11.90;10.70;;;22.70;73.30;;;;;;10417428;28;20037;-57
2021/07/14 03:46:57;;;;;;;10.82;9.73;;;22.70;73.30;;;;;;10434430;28;20045;-56
2021/07/14 03:51:58;;;;;;;12.20;10.95;;;22.70;73.30;;;;;;10417537;28;20044;-56
2021/07/14 03:57:00;;;;;;;13.07;11.77;;;22.60;73.20;;;;;;10418086;28;20040;-56
2021/07/14 04:02:02;;;;;;;12.48;11.27;;;22.70;73.30;;;;;;10414663;28;20111;-56
2021/07/14 04:07:14;;;;;;;11.20;10.10;;;22.70;73.30;;;;;;10399751;28;20064;-56
2021/07/14 04:12:16;;;;;;;12.90;10.55;;;22.70;73.30;;;;;;10407996;28;20048;-56
2021/07/14 04:17:16;;;;;;;12.70;10.88;;;22.70;73.30;;;;;;10410945;28;20033;-57
2021/07/14 04:22:17;;;;;;;11.77;10.40;;;22.70;73.30;;;;;;10418127;28;20045;-57
2021/07/14 04:27:18;;;;;;;10.88;9.77;;;22.60;73.30;;;;;;10408837;28;20057;-56
2021/07/14 04:32:19;;;;;;;11.57;10.48;;;22.70;73.30;;;;;;10410155;28;20048;-55
2021/07/14 04:37:20;;;;;;;11.07;9.98;;;22.70;73.30;;;;;;10413290;28;20060;-56
2021/07/14 04:42:21;;;;;;;11.45;10.25;;;22.60;73.20;;;;;;10450845;28;20124;-56
2021/07/14 04:47:21;;;;;;;11.13;9.98;;;22.60;73.20;;;;;;10432400;28;20102;-55
2021/07/14 04:52:22;;;;;;;12.10;10.85;;;22.60;73.10;;;;;;10450142;28;20045;-56
2021/07/14 04:57:23;;;;;;;10.82;9.73;;;22.60;73.00;;;;;;10449837;28;20036;-55
2021/07/14 05:02:24;;;;;;;11.48;10.27;;;22.60;72.90;;;;;;10453468;28;20035;-56
2021/07/14 05:07:24;;;;;;;11.23;10.13;;;22.60;73.10;;;;;;10455521;28;20029;-56
2021/07/14 05:12:25;;;;;;;11.32;10.13;;;22.60;73.10;;;;;;10456863;28;20146;-57
2021/07/14 05:17:26;;;;;;;14.38;10.23;;;22.60;72.80;;;;;;10455674;28;20086;-57
2021/07/14 05:22:27;;;;;;;13.93;10.15;;;22.70;73.50;;;;;;10441223;28;20037;-57
2021/07/14 05:27:28;;;;;;;12.85;10.43;;;22.70;73.80;;;;;;10456359;28;20033;-57
2021/07/14 05:32:29;;;;;;;13.13;10.50;;;22.70;74.30;;;;;;10455632;28;20024;-57
2021/07/14 05:37:29;;;;;;;12.48;9.55;;;22.70;74.20;;;;;;10454862;28;20072;-57
2021/07/14 05:42:30;;;;;;;13.00;9.95;;;22.80;74.20;;;;;;10451332;28;20053;-56
2021/07/14 05:47:31;;;;;;;14.40;10.68;;;22.80;74.30;;;;;;10455408;28;20021;-56
2021/07/14 05:52:32;;;;;;;10.40;8.73;;;22.80;74.30;;;;;;10455525;28;20029;-56
2021/07/14 05:57:33;;;;;;;17.98;10.68;;;22.80;74.00;;;;;;10454418;28;20036;-57
2021/07/14 06:02:34;;;;;;;17.17;11.93;;;22.80;74.00;;;;;;10454504;28;20037;-55
2021/07/14 06:07:36;;;;;;;19.20;10.25;;;22.80;74.20;;;;;;10455169;28;20029;-53
2021/07/14 06:12:37;;;;;;;19.83;10.30;;;22.80;73.90;;;;;;10455273;28;20033;-56
2021/07/14 06:17:38;;;;;;;14.70;10.15;;;22.80;74.20;;;;;;10452901;28;20029;-55
2021/07/14 06:22:39;;;;;;;14.75;10.32;;;22.80;74.00;;;;;;10448059;28;20048;-55
2021/07/14 06:27:42;;;;;;;13.18;9.75;;;22.80;73.90;;;;;;10456110;28;20029;-55
2021/07/14 06:32:43;;;;;;;11.82;9.75;;;22.70;73.70;;;;;;10462749;28;20037;-53
2021/07/14 06:37:45;;;;;;;19.27;9.85;;;22.70;73.80;;;;;;10462363;28;20119;-55
2021/07/14 06:42:48;;;;;;;12.63;10.32;;;22.70;73.70;;;;;;10440520;28;20061;-54
2021/07/14 06:47:49;;;;;;;13.50;10.63;;;22.70;73.60;;;;;;10448590;28;20060;-54
2021/07/14 06:52:50;;;;;;;13.73;10.25;;;22.70;73.40;;;;;;10459468;28;20040;-54
2021/07/14 06:57:50;;;;;;;15.00;10.30;;;22.70;73.30;;;;;;10460281;28;20499;-55
2021/07/14 07:02:51;;;;;;;12.18;9.75;;;22.60;73.80;;;;;;10461134;28;20116;-53
2021/07/14 07:07:52;;;;;;;9.43;8.40;;;22.70;73.30;;;;;;10443962;28;20029;-54
2021/07/14 07:12:53;;;;;;;10.70;9.43;;;22.70;73.30;;;;;;10461101;28;20056;-54
2021/07/14 07:17:54;;;;;;;11.98;9.68;;;22.70;73.10;;;;;;10460836;28;20029;-55
2021/07/14 07:22:55;;;;;;;11.80;9.45;;;22.70;73.10;;;;;;10468192;28;20114;-55
2021/07/14 07:27:58;;;;;;;12.65;9.52;;;22.70;73.00;;;;;;10460724;28;20041;-54
2021/07/14 07:32:59;;;;;;;13.75;10.60;;;22.70;73.00;;;;;;10459546;28;20025;-54
2021/07/14 07:38:00;;;;;;;12.70;9.57;;;22.70;73.00;;;;;;10444832;28;20053;-54
2021/07/14 07:43:01;;;;;;;9.77;8.75;;;22.60;73.00;;;;;;10441548;28;20029;-54
2021/07/14 07:48:02;;;;;;;11.88;10.55;;;22.70;72.90;;;;;;10460296;28;20063;-54
2021/07/14 07:53:03;;;;;;;11.77;9.18;;;22.60;73.00;;;;;;10459612;28;20440;-54
2021/07/14 07:58:03;;;;;;;11.00;9.30;;;22.60;72.90;;;;;;10431675;28;20376;-54
2021/07/14 08:03:04;;;;;;;11.57;10.00;;;22.60;73.00;;;;;;10459121;28;20051;-54
2021/07/14 08:08:06;;;;;;;13.98;9.88;;;22.60;73.00;;;;;;10441125;28;20496;-54
2021/07/14 08:13:07;;;;;;;11.18;9.82;;;22.60;72.80;;;;;;10459202;28;20335;-55
2021/07/14 08:18:08;;;;;;;11.23;10.13;;;22.60;72.80;;;;;;10458989;28;20033;-54
2021/07/14 08:23:10;;;;;;;11.43;9.55;;;22.60;72.80;;;;;;10465221;28;20041;-54
2021/07/14 08:28:12;;;;;;;11.15;9.55;;;22.60;72.80;;;;;;10440836;28;20082;-54
2021/07/14 08:33:13;;;;;;;12.82;10.45;;;22.60;72.80;;;;;;10458340;28;20043;-55
2021/07/14 08:38:13;;;;;;;11.77;10.40;;;22.60;72.80;;;;;;10457955;28;20037;-54
2021/07/14 08:43:15;;;;;;;10.77;9.65;;;22.60;73.00;;;;;;10457920;28;20025;-54
2021/07/14 08:48:16;;;;;;;12.18;10.05;;;22.60;72.90;;;;;;10439355;28;20054;-53
2021/07/14 08:53:19;;;;;;;12.15;10.85;;;22.60;73.10;;;;;;10439288;28;20044;-53
2021/07/14 08:58:24;;;;;;;13.27;10.98;;;22.60;73.80;;;;;;10456749;28;20036;-53
2021/07/14 09:03:27;;;;;;;15.73;10.13;;;22.60;74.10;;;;;;10454620;28;20044;-54
2021/07/14 09:08:28;;;;;;;16.17;11.02;;;22.60;73.80;;;;;;10455781;28;20025;-54
2021/07/14 09:13:47;;;;;;;14.00;10.10;;;22.60;73.80;;;;;;10455785;28;20040;-53
2021/07/14 09:18:47;;;;;;;14.10;10.60;;;22.60;74.00;;;;;;10455404;28;20032;-55
2021/07/14 09:23:48;;;;;;;13.57;9.82;;;22.60;74.00;;;;;;10460842;28;20470;-55
2021/07/14 09:29:05;;;;;;;13.43;10.55;;;22.60;74.10;;;;;;10420197;28;20020;-54
2021/07/14 09:34:31;;;;;;;17.67;11.82;;;22.70;74.10;;;;;;10453114;28;20025;-54
2021/07/14 09:39:39;;;;;;;13.05;10.43;;;22.60;74.10;;;;;;10455088;28;20037;-55
2021/07/14 09:44:50;;;;;;;14.40;10.68;;;22.70;74.20;;;;;;10454018;28;20485;-55
2021/07/14 09:49:51;;;;;;;12.50;10.10;;;22.60;74.10;;;;;;10454957;28;20033;-55
2021/07/14 09:55:08;;;;;;;14.68;10.90;;;22.70;74.10;;;;;;10455144;28;20036;-54
2021/07/14 10:00:19;;;;;;;18.92;11.32;;;22.60;74.00;;;;;;10437550;28;20091;-55
2021/07/14 10:05:20;;;;;;;15.25;10.82;;;22.60;74.10;;;;;;10454764;28;20456;-56
2021/07/14 10:10:22;;;;;;;16.58;10.90;;;22.60;74.00;;;;;;10455267;28;20036;-56
2021/07/14 10:15:26;;;;;;;13.98;11.73;;;22.70;74.20;;;;;;10455091;28;20041;-57
2021/07/14 10:20:38;;;;;;;18.52;12.32;;;22.60;74.50;;;;;;10462011;28;20033;-57
2021/07/14 10:25:42;;;;;;;22.10;12.05;;;22.70;74.70;;;;;;10455322;28;20036;-56
2021/07/14 10:30:46;;;;;;;14.45;11.55;;;22.70;74.80;;;;;;10454922;28;20024;-57
2021/07/14 10:35:53;;;;;;;16.48;10.70;;;22.70;74.90;;;;;;10453930;28;20066;-56
2021/07/14 10:40:56;;;;;;;15.00;11.10;;;22.70;75.00;;;;;;10439215;28;20037;-57
2021/07/14 10:45:57;;;;;;;21.50;11.55;;;22.70;74.90;;;;;;10454204;28;20055;-56
2021/07/14 10:50:58;;;;;;;20.05;12.50;;;22.70;74.80;;;;;;10435826;28;20033;-56
2021/07/14 10:56:00;;;;;;;15.80;11.48;;;22.70;74.80;;;;;;10444623;28;20095;-55
2021/07/14 11:01:02;;;;;;;14.23;10.80;;;22.70;74.60;;;;;;10452645;28;20033;-56
2021/07/14 11:06:05;;;;;;;14.75;10.80;;;22.80;74.60;;;;;;10453498;28;20025;-56
2021/07/14 11:11:06;;;;;;;20.50;11.48;;;22.70;74.70;;;;;;10453075;28;20039;-55
2021/07/14 11:16:33;;;;;;;18.05;10.80;;;22.70;74.70;;;;;;10456584;28;20041;-52
2021/07/14 11:21:44;;;;;;;18.42;10.82;;;22.70;74.80;;;;;;10461128;28;20041;-57
2021/07/14 11:26:45;;;;;;;16.58;10.43;;;22.70;74.80;;;;;;10461251;28;20033;-57
2021/07/14 11:31:45;;;;;;;15.73;10.43;;;22.70;74.30;;;;;;10450207;28;20108;-55
2021/07/14 11:36:46;;;;;;;11.73;9.23;;;22.70;74.30;;;;;;10460875;28;20094;-56
2021/07/14 11:41:47;;;;;;;15.07;10.63;;;22.70;74.20;;;;;;10460340;28;20416;-55
2021/07/14 11:46:49;;;;;;;14.98;11.43;;;22.70;74.40;;;;;;10442351;28;20033;-55
2021/07/14 11:51:49;;;;;;;17.67;10.68;;;22.70;74.50;;;;;;10442759;28;20114;-56
2021/07/14 11:56:52;;;;;;;17.40;10.13;;;22.70;75.00;;;;;;10442474;28;20551;-56
2021/07/14 12:02:03;;;;;;;13.50;10.02;;;22.70;74.40;;;;;;10459505;28;20029;-57
2021/07/14 12:07:14;;;;;;;15.25;11.38;;;22.70;74.40;;;;;;10459640;28;20056;-57
2021/07/14 12:12:22;;;;;;;14.25;11.02;;;22.70;74.30;;;;;;10459227;28;20063;-56
2021/07/14 12:17:27;;;;;;;14.10;11.35;;;22.70;74.20;;;;;;10458677;28;20143;-55
2021/07/14 12:22:34;;;;;;;21.05;11.65;;;22.70;74.40;;;;;;10458342;28;20033;-55
2021/07/14 12:27:41;;;;;;;16.65;9.93;;;22.70;74.50;;;;;;10441275;28;20032;-51
2021/07/14 12:32:50;;;;;;;19.77;10.68;;;22.70;74.60;;;;;;10458414;28;20059;-55
2021/07/14 12:37:56;;;;;;;16.55;10.60;;;22.70;74.80;;;;;;10458294;28;20079;-53
2021/07/14 12:42:59;;;;;;;22.73;10.77;;;22.60;74.90;;;;;;10456888;28;20029;-54
2021/07/14 12:48:03;;;;;;;14.85;11.15;;;22.70;75.10;;;;;;10457637;28;20021;-55
2021/07/14 12:53:05;;;;;;;30.60;11.85;;;22.70;74.80;;;;;;10455286;28;20035;-56
2021/07/14 12:58:16;;;;;;;39.97;13.30;;;22.70;75.10;;;;;;10456461;28;20743;-60
2021/07/14 13:03:20;;;;;;;29.65;11.20;;;22.70;75.20;;;;;;10438705;28;20032;-58
2021/07/14 13:08:30;;;;;;;25.23;11.48;;;22.70;75.10;;;;;;10455978;28;20025;-59
2021/07/14 13:13:33;;;;;;;23.25;12.52;;;22.70;75.20;;;;;;10443909;28;20029;-57
2021/07/14 13:18:43;;;;;;;18.65;11.02;;;22.70;75.20;;;;;;10433994;28;20036;-58
2021/07/14 13:23:44;;;;;;;23.75;11.00;;;22.70;75.30;;;;;;10454119;28;20025;-58
2021/07/14 13:28:45;;;;;;;25.42;10.95;;;22.70;75.30;;;;;;10439494;28;20373;-57
2021/07/14 13:33:48;;;;;;;25.85;10.95;;;22.80;75.60;;;;;;10455085;28;20469;-58
2021/07/14 13:38:56;;;;;;;22.50;10.75;;;22.80;75.60;;;;;;10441387;28;20067;-58
2021/07/14 13:44:09;;;;;;;16.15;10.70;;;22.80;75.10;;;;;;10454130;28;20037;-58
2021/07/14 13:49:10;;;;;;;16.23;10.25;;;22.80;75.10;;;;;;10450883;28;20028;-58
2021/07/14 13:54:28;;;;;;;17.15;10.50;;;22.80;75.60;;;;;;10441082;28;20563;-57
2021/07/14 13:59:54;;;;;;;19.58;11.57;;;22.80;75.20;;;;;;10447754;28;20079;-57
2021/07/14 14:04:59;;;;;;;27.70;11.23;;;22.80;75.50;;;;;;10449768;28;20048;-56
2021/07/14 14:10:16;;;;;;;22.95;13.07;;;22.80;75.50;;;;;;10454029;28;20466;-57
2021/07/14 14:15:28;;;;;;;17.95;9.40;;;22.80;75.70;;;;;;10454703;28;20025;-55
2021/07/14 14:20:33;;;;;;;21.15;11.82;;;22.80;75.50;;;;;;10459331;28;20056;-57
2021/07/14 14:25:40;;;;;;;14.20;10.38;;;22.90;75.90;;;;;;10454500;28;20032;-57
2021/07/14 14:30:43;;;;;;;18.48;10.45;;;22.90;75.70;;;;;;10455033;28;20366;-55
2021/07/14 14:35:43;;;;;;;20.48;12.32;;;22.80;75.20;;;;;;10454684;28;20033;-56
2021/07/14 14:40:49;;;;;;;15.07;11.15;;;22.80;75.40;;;;;;10454585;28;20069;-56
2021/07/14 14:45:49;;;;;;;18.48;11.52;;;22.80;75.40;;;;;;10454719;28;20492;-56
2021/07/14 14:50:53;;;;;;;14.80;11.43;;;22.90;75.50;;;;;;10458891;28;20104;-56
2021/07/14 14:55:54;;;;;;;14.50;9.80;;;22.80;75.40;;;;;;10461189;28;20028;-56
2021/07/14 15:00:54;;;;;;;13.40;10.13;;;22.80;75.00;;;;;;10460263;28;20060;-56
2021/07/14 15:05:55;;;;;;;15.50;9.75;;;22.80;75.00;;;;;;10461190;28;20052;-56
2021/07/14 15:10:56;;;;;;;12.63;10.63;;;22.80;75.80;;;;;;10460463;28;20367;-56
2021/07/14 15:15:57;;;;;;;15.18;10.88;;;22.80;75.20;;;;;;10443201;28;20033;-56
2021/07/14 15:20:58;;;;;;;12.75;10.05;;;22.80;75.20;;;;;;10469009;28;20516;-55
2021/07/14 15:31:01;;;;;;;14.82;10.07;;;22.80;75.00;;;;;;10460913;28;20108;-56
2021/07/14 15:36:02;;;;;;;13.23;10.55;;;22.80;74.90;;;;;;10460689;28;20485;-56
2021/07/14 15:41:03;;;;;;;12.18;10.43;;;22.80;74.90;;;;;;10459898;28;20060;-56
2021/07/14 15:46:04;;;;;;;15.48;9.98;;;22.80;75.60;;;;;;10459484;28;20124;-56
2021/07/14 15:51:05;;;;;;;12.20;10.90;;;22.80;74.90;;;;;;10460101;28;20059;-56
2021/07/14 15:56:05;;;;;;;12.98;10.43;;;22.80;75.10;;;;;;10459725;28;20385;-54
2021/07/14 16:01:07;;;;;;;17.80;10.90;;;22.80;74.90;;;;;;10456013;28;20106;-53
2021/07/14 16:06:08;;;;;;;177.70;104.45;;;22.80;75.10;;;;;;10457234;28;20357;-55
2021/07/14 16:11:09;;;;;;;145.57;76.93;;;22.90;79.30;;;;;;10456533;28;20032;-56
2021/07/14 16:16:10;;;;;;;117.00;63.00;;;23.00;77.80;;;;;;10456351;28;20048;-55
2021/07/14 16:21:12;;;;;;;107.82;53.63;;;23.00;77.20;;;;;;10459322;28;20074;-56
2021/07/14 16:26:12;;;;;;;75.07;41.45;;;23.00;77.50;;;;;;10456797;28;20547;-56
2021/07/14 16:31:14;;;;;;;58.17;36.30;;;23.00;78.70;;;;;;10456558;28;20082;-58
2021/07/14 16:36:15;;;;;;;56.25;34.35;;;23.00;79.00;;;;;;10457426;28;20416;-54
2021/07/14 16:41:16;;;;;;;60.40;34.25;;;23.00;78.40;;;;;;10441230;28;20075;-57
2021/07/14 16:46:17;;;;;;;57.00;34.63;;;23.10;78.40;;;;;;10457163;28;20013;-56
2021/07/14 16:51:18;;;;;;;47.67;29.63;;;23.10;78.00;;;;;;10456853;28;20025;-55
2021/07/14 16:56:18;;;;;;;47.75;27.90;;;23.10;77.70;;;;;;10456762;28;20104;-56
2021/07/14 17:01:20;;;;;;;46.65;28.20;;;23.10;78.10;;;;;;10456457;28;20032;-55
2021/07/14 17:06:21;;;;;;;47.83;28.38;;;23.10;77.30;;;;;;10456230;28;20013;-56
2021/07/14 17:11:22;;;;;;;37.28;25.65;;;23.00;77.10;;;;;;10455689;28;20477;-56
2021/07/14 17:16:23;;;;;;;33.90;25.27;;;23.00;77.00;;;;;;10456119;28;20063;-56
2021/07/14 17:21:24;;;;;;;39.53;24.90;;;23.00;76.80;;;;;;10455149;28;20114;-55
2021/07/14 17:26:24;;;;;;;56.22;31.00;;;22.90;76.70;;;;;;10455217;28;20108;-56
2021/07/14 17:31:25;;;;;;;31.85;24.52;;;23.00;76.80;;;;;;10454857;28;20064;-54
2021/07/14 17:36:26;;;;;;;35.38;23.35;;;22.90;76.80;;;;;;10455602;28;20044;-56
2021/07/14 17:41:27;;;;;;;26.48;20.90;;;22.90;76.90;;;;;;10454428;28;20402;-56
2021/07/14 17:46:33;;;;;;;37.95;21.20;;;22.80;76.70;;;;;;10454319;28;20035;-54
2021/07/14 17:51:35;;;;;;;24.92;19.95;;;22.90;77.10;;;;;;10444284;28;20099;-54
2021/07/14 17:56:36;;;;;;;24.45;19.50;;;22.90;77.80;;;;;;10428706;28;20477;-55
2021/07/14 18:01:37;;;;;;;21.73;17.88;;;22.90;77.00;;;;;;10452797;28;20044;-56
2021/07/14 18:06:39;;;;;;;25.42;18.90;;;22.90;77.80;;;;;;10447980;28;20025;-56
2021/07/14 18:11:40;;;;;;;22.67;16.98;;;22.90;77.60;;;;;;10452146;28;20036;-56
2021/07/14 18:16:40;;;;;;;21.38;18.23;;;23.00;77.80;;;;;;10439678;28;20032;-55
2021/07/14 18:21:41;;;;;;;20.35;17.85;;;23.00;77.70;;;;;;10442544;28;20136;-56
2021/07/14 18:26:42;;;;;;;20.42;16.17;;;23.00;77.60;;;;;;10451382;28;20031;-54
2021/07/14 18:31:43;;;;;;;22.67;16.23;;;23.00;77.10;;;;;;10457611;28;20040;-56
2021/07/14 18:36:43;;;;;;;17.35;14.57;;;23.00;77.10;;;;;;10461390;28;20044;-55
2021/07/14 18:41:44;;;;;;;16.42;13.63;;;22.90;77.10;;;;;;10457773;28;20048;-55
2021/07/14 18:46:45;;;;;;;21.73;14.98;;;22.90;77.10;;;;;;10456730;28;20435;-56
2021/07/14 18:51:45;;;;;;;19.73;14.30;;;23.00;77.10;;;;;;10457380;28;20033;-56
2021/07/14 18:56:47;;;;;;;18.02;13.57;;;22.90;77.10;;;;;;10457286;28;20408;-55
2021/07/14 19:01:48;;;;;;;17.73;13.52;;;22.90;77.10;;;;;;10460412;28;20535;-55
2021/07/14 19:06:49;;;;;;;16.92;13.48;;;22.90;77.10;;;;;;10459180;28;20100;-55
2021/07/14 19:11:50;;;;;;;18.05;13.52;;;22.90;77.10;;;;;;10458991;28;20492;-55
2021/07/14 19:16:51;;;;;;;16.67;13.82;;;22.90;77.20;;;;;;10456801;28;20059;-55
2021/07/14 19:21:53;;;;;;;19.48;14.35;;;22.90;77.20;;;;;;10461208;28;20419;-55
2021/07/14 19:26:54;;;;;;;16.08;12.95;;;22.90;77.20;;;;;;10456130;28;20109;-54
2021/07/14 19:31:55;;;;;;;15.73;12.75;;;22.90;77.70;;;;;;10456338;28;20025;-55
2021/07/14 19:36:55;;;;;;;17.52;14.02;;;23.00;77.20;;;;;;10435901;28;20124;-54
2021/07/14 19:41:56;;;;;;;15.23;12.75;;;22.90;77.30;;;;;;10457234;28;20092;-55
2021/07/14 19:46:57;;;;;;;15.60;13.48;;;22.90;77.30;;;;;;10457184;28;20159;-53
2021/07/14 19:51:57;;;;;;;13.13;11.70;;;23.00;77.20;;;;;;10458062;28;20033;-55
2021/07/14 19:56:58;;;;;;;16.52;13.57;;;23.00;76.90;;;;;;10457439;28;20039;-53
2021/07/14 20:01:59;;;;;;;16.60;12.68;;;22.90;76.80;;;;;;10457883;28;20060;-54
2021/07/14 20:07:00;;;;;;;15.93;11.65;;;22.90;76.70;;;;;;10459756;28;20033;-55
2021/07/14 20:12:01;;;;;;;15.13;12.70;;;22.90;76.70;;;;;;10458723;28;20033;-55
2021/07/14 20:17:01;;;;;;;14.63;11.93;;;22.90;76.80;;;;;;10458938;28;20409;-55
2021/07/14 20:22:03;;;;;;;14.15;12.75;;;22.90;76.70;;;;;;10459103;28;20025;-55
2021/07/14 20:27:03;;;;;;;13.30;11.88;;;22.90;76.70;;;;;;10458939;28;20024;-55
2021/07/14 20:32:05;;;;;;;14.90;12.48;;;22.90;76.60;;;;;;10458635;28;20485;-55
2021/07/14 20:37:06;;;;;;;15.68;12.68;;;22.90;76.70;;;;;;10458190;28;20094;-55
2021/07/14 20:42:07;;;;;;;12.68;11.25;;;22.90;76.60;;;;;;10457243;28;20044;-55
2021/07/14 20:47:08;;;;;;;13.10;11.77;;;22.90;76.60;;;;;;10443174;28;20083;-55
2021/07/14 20:52:08;;;;;;;12.82;11.60;;;22.90;76.40;;;;;;10457422;28;20496;-55
2021/07/14 20:57:09;;;;;;;13.43;12.13;;;22.80;76.40;;;;;;10457568;28;20477;-56
2021/07/14 21:02:10;;;;;;;13.32;11.82;;;22.80;76.40;;;;;;10456501;28;20029;-53
2021/07/14 21:07:11;;;;;;;13.27;11.98;;;22.90;76.50;;;;;;10451095;28;20031;-54
2021/07/14 21:12:13;;;;;;;13.30;11.38;;;22.80;76.30;;;;;;10453768;28;20041;-55
2021/07/14 21:17:13;;;;;;;13.13;11.15;;;22.80;76.30;;;;;;10456181;28;20082;-55
2021/07/14 21:22:14;;;;;;;13.10;11.07;;;22.80;76.10;;;;;;10463167;28;20069;-55
2021/07/14 21:27:15;;;;;;;13.52;11.85;;;22.80;76.10;;;;;;10456038;28;20111;-55
2021/07/14 21:32:17;;;;;;;11.80;10.60;;;22.80;76.00;;;;;;10455749;28;20099;-55
2021/07/14 21:37:17;;;;;;;13.13;11.70;;;22.80;76.00;;;;;;10456305;28;20040;-55
2021/07/14 21:42:19;;;;;;;12.60;11.30;;;22.80;76.00;;;;;;10439048;28;20041;-56
2021/07/14 21:47:19;;;;;;;11.85;10.80;;;22.80;76.10;;;;;;10455882;28;20040;-55
2021/07/14 21:52:20;;;;;;;12.88;11.30;;;22.80;75.90;;;;;;10455569;28;20481;-55
2021/07/14 21:57:21;;;;;;;13.18;11.43;;;22.80;75.90;;;;;;10455394;28;20090;-54
2021/07/14 22:02:22;;;;;;;12.70;11.35;;;22.80;75.90;;;;;;10454465;28;20080;-55
2021/07/14 22:07:22;;;;;;;11.63;10.52;;;22.80;75.90;;;;;;10455392;28;20039;-55
2021/07/14 22:12:23;;;;;;;13.00;11.32;;;22.80;75.50;;;;;;10455254;28;20035;-54
2021/07/14 22:17:24;;;;;;;12.00;10.57;;;22.80;75.40;;;;;;10455030;28;20072;-55
2021/07/14 22:22:24;;;;;;;12.77;11.48;;;22.80;75.40;;;;;;10459687;28;20036;-55
2021/07/14 22:27:25;;;;;;;14.35;10.98;;;22.80;75.30;;;;;;10454776;28;20037;-55
2021/07/14 22:32:28;;;;;;;13.93;11.98;;;22.70;75.40;;;;;;10454450;28;20434;-55
2021/07/14 22:37:28;;;;;;;12.15;11.05;;;22.70;75.50;;;;;;10449812;28;20037;-55
2021/07/14 22:42:29;;;;;;;12.35;11.15;;;22.70;75.50;;;;;;10454474;28;20497;-56
2021/07/14 22:47:30;;;;;;;13.07;11.73;;;22.70;75.60;;;;;;10438260;28;20029;-55
2021/07/14 22:52:31;;;;;;;13.85;11.45;;;22.70;75.60;;;;;;10452341;28;20063;-56
2021/07/14 22:57:32;;;;;;;11.88;10.43;;;22.70;75.70;;;;;;10454507;28;20506;-55
2021/07/14 23:02:33;;;;;;;12.40;11.20;;;22.70;75.70;;;;;;10454045;28;20055;-55
2021/07/14 23:07:34;;;;;;;12.18;10.98;;;22.70;75.70;;;;;;10454680;28;20477;-55
2021/07/14 23:12:35;;;;;;;12.57;11.30;;;22.70;75.80;;;;;;10459689;28;20033;-55
2021/07/14 23:17:37;;;;;;;12.38;11.18;;;22.70;75.80;;;;;;10461076;28;20043;-55
2021/07/14 23:22:38;;;;;;;12.60;11.48;;;22.70;75.90;;;;;;10467933;28;20124;-54
2021/07/14 23:27:40;;;;;;;12.10;10.85;;;22.70;75.90;;;;;;10460534;28;20025;-56
2021/07/14 23:32:41;;;;;;;11.73;10.57;;;22.70;75.80;;;;;;10443599;28;20442;-56
2021/07/14 23:37:42;;;;;;;12.80;11.50;;;22.70;76.00;;;;;;10460924;28;20043;-55
2021/07/14 23:42:49;;;;;;;12.45;11.25;;;22.70;75.80;;;;;;10460415;28;20060;-55
2021/07/14 23:47:52;;;;;;;10.38;9.40;;;22.70;75.80;;;;;;10460092;28;20068;-55
2021/07/14 23:52:54;;;;;;;12.48;11.27;;;22.70;75.60;;;;;;10459584;28;20049;-55
2021/07/14 23:57:56;;;;;;;12.98;11.57;;;22.70;75.90;;;;;;10460202;28;20060;-55
